Time;durP1;ratioP1;P1;durP2;ratioP2;P2;SDS_P1;SDS_P2;PMS_P1;PMS_P2;Temp;Humidity;BMP_temperature;BMP_pressure;BME280_temperature;BME280_humidity;BME280_pressure;Samples;Min_cycle;Max_cycle;Signal;HPM_P1;HPM_P2
2021/12/21 00:01:07;;;;;;;6.08;2.35;;;;;;;-3.90;97.24;98620.83;1681753;85;21012;-75
2021/12/21 00:03:41;;;;;;;3.35;1.60;;;;;;;-3.87;97.51;98624.89;1698031;83;21620;-78
2021/12/21 00:06:19;;;;;;;2.62;1.20;;;;;;;-3.84;97.49;98625.22;1698584;83;21035;-78
2021/12/21 00:08:49;;;;;;;2.25;1.10;;;;;;;-3.89;95.65;98648.45;1680533;85;21059;-78
2021/12/21 00:11:20;;;;;;;2.55;1.30;;;;;;;-3.99;95.32;98649.92;1676157;85;21973;-78
2021/12/21 00:16:44;;;;;;;2.05;1.00;;;;;;;-4.17;95.12;98658.74;1669843;84;21077;-77
2021/12/21 00:21:38;;;;;;;2.00;1.10;;;;;;;-4.34;97.83;98663.55;1670673;84;20949;-78
2021/12/21 00:26:43;;;;;;;2.15;1.10;;;;;;;-4.47;99.98;98669.20;1642856;84;21701;-78
2021/12/21 00:29:17;;;;;;;2.67;1.27;;;;;;;-4.48;100.00;98672.12;1662270;84;21059;-78
2021/12/21 00:31:49;;;;;;;1.37;0.80;;;;;;;-4.47;99.96;98679.10;1652694;84;21598;-77
2021/12/21 00:34:17;;;;;;;1.85;1.30;;;;;;;-4.48;98.29;98682.83;1648174;84;21660;-78
2021/12/21 00:36:47;;;;;;;2.95;1.30;;;;;;;-4.52;97.71;98685.17;1665372;83;21528;-78
2021/12/21 00:39:18;;;;;;;4.15;1.10;;;;;;;-4.54;97.61;98689.95;1685499;84;20917;-78
2021/12/21 00:41:47;;;;;;;1.85;1.07;;;;;;;-4.54;97.49;98689.95;1685663;84;20928;-77
2021/12/21 00:44:17;;;;;;;1.50;0.82;;;;;;;-4.52;97.00;98690.53;1671895;84;21516;-77
2021/12/21 00:46:52;;;;;;;2.15;0.95;;;;;;;-4.53;96.29;98686.23;1596649;87;20952;-77
2021/12/21 00:49:24;;;;;;;1.85;0.95;;;;;;;-4.56;96.23;98695.27;1579769;87;20962;-77
2021/12/21 00:51:57;;;;;;;2.83;1.40;;;;;;;-4.59;96.74;98692.53;1626225;86;21004;-76
2021/12/21 00:54:29;;;;;;;2.58;1.22;;;;;;;-4.61;95.96;98695.16;1656523;86;21096;-76
2021/12/21 00:56:59;;;;;;;3.17;1.27;;;;;;;-4.67;95.64;98701.80;1626354;86;21071;-76
2021/12/21 00:59:28;;;;;;;2.22;1.22;;;;;;;-4.73;95.50;98705.42;1657158;86;21055;-77
2021/12/21 01:01:58;;;;;;;3.08;1.45;;;;;;;-4.78;95.12;98709.33;1635405;87;21555;-78
2021/12/21 01:04:34;;;;;;;1.85;0.98;;;;;;;-4.81;95.02;98704.97;1632929;87;21014;-77
2021/12/21 01:07:09;;;;;;;3.37;1.25;;;;;;;-4.91;94.91;98697.55;1627726;87;21608;-77
2021/12/21 01:12:37;;;;;;;4.85;1.72;;;;;;;-5.09;95.54;98725.80;1661650;84;20893;-77
2021/12/21 01:17:47;;;;;;;4.12;1.25;;;;;;;-5.18;96.64;98732.55;1688378;84;21012;-77
2021/12/21 01:20:23;;;;;;;3.00;1.30;;;;;;;-5.18;96.75;98728.53;1658085;84;21517;-78
2021/12/21 01:28:04;;;;;;;4.55;0.98;;;;;;;-5.33;96.22;98748.58;1665955;83;21173;-78
2021/12/21 01:35:46;;;;;;;2.95;1.15;;;;;;;-5.52;94.60;98759.61;1690360;84;20903;-78
2021/12/21 01:38:31;;;;;;;1.55;0.93;;;;;;;-5.55;94.74;98752.05;1653104;86;21055;-78
2021/12/21 01:41:25;;;;;;;1.75;0.90;;;;;;;-5.55;94.35;98760.88;1631631;85;20901;-78
2021/12/21 01:43:59;;;;;;;3.80;1.27;;;;;;;-5.57;93.66;98766.98;1649845;86;20985;-78
2021/12/21 01:52:06;;;;;;;2.47;1.30;;;;;;;-5.70;91.09;98769.86;1632126;86;20952;-79
2021/12/21 01:54:35;;;;;;;4.72;1.75;;;;;;;-5.76;90.28;98784.96;1654156;86;21866;-78
2021/12/21 01:57:06;;;;;;;4.22;1.50;;;;;;;-5.82;89.21;98785.09;1650860;86;21033;-79
2021/12/21 01:59:44;;;;;;;4.87;1.87;;;;;;;-5.85;89.69;98796.23;1633541;86;21648;-79
2021/12/21 02:02:14;;;;;;;4.85;1.30;;;;;;;-5.86;89.83;98797.28;1657703;86;20981;-78
2021/12/21 02:04:47;;;;;;;2.22;1.40;;;;;;;-5.84;90.18;98805.89;1632585;86;20984;-78
2021/12/21 02:07:20;;;;;;;3.57;1.40;;;;;;;-5.85;89.03;98801.06;1695707;84;21765;-79
2021/12/21 02:09:54;;;;;;;3.72;1.62;;;;;;;-5.89;88.12;98804.45;1663167;84;21595;-79
2021/12/21 02:12:26;;;;;;;4.65;1.17;;;;;;;-5.95;88.49;98806.69;1689487;84;20939;-79
2021/12/21 02:14:59;;;;;;;3.45;1.60;;;;;;;-5.97;89.00;98807.44;1682066;83;20956;-78
2021/12/21 02:23:21;;;;;;;3.90;1.77;;;;;;;-5.97;89.91;98818.13;1685195;84;20963;-79
2021/12/21 02:26:04;;;;;;;3.05;1.37;;;;;;;-5.97;89.97;98819.47;1686164;84;21055;-79
2021/12/21 02:28:45;;;;;;;3.75;1.65;;;;;;;-5.97;89.78;98820.28;1661656;84;21117;-76
2021/12/21 02:30:54;;;;;;;3.05;1.50;;;;;;;-6.00;90.27;98813.53;1681363;84;20896;-76
2021/12/21 02:33:23;;;;;;;3.53;1.67;;;;;;;-5.97;90.23;98821.62;1690961;84;21800;-76
2021/12/21 02:35:57;;;;;;;4.53;1.35;;;;;;;-6.04;90.36;98825.72;1687080;84;21012;-76
2021/12/21 02:38:27;;;;;;;3.33;1.70;;;;;;;-6.05;90.60;98837.44;1692663;84;20983;-76
2021/12/21 02:41:01;;;;;;;2.62;1.45;;;;;;;-6.07;90.91;98846.20;1695347;84;20976;-76
2021/12/21 02:43:36;;;;;;;;;;;;;;;-6.10;90.75;98843.98;1675342;85;21043;-76
2021/12/21 02:46:01;;;;;;;2.72;1.32;;;;;;;-6.10;91.01;98842.65;1670296;85;21994;-76
2021/12/21 02:48:35;;;;;;;4.20;1.60;;;;;;;-6.11;91.19;98848.22;1623696;86;21021;-76
2021/12/21 02:51:08;;;;;;;4.17;1.60;;;;;;;-6.10;91.49;98849.84;1655657;84;21071;-77
2021/12/21 02:53:44;;;;;;;6.97;2.40;;;;;;;-6.10;91.32;98857.34;1679583;84;20895;-76
2021/12/21 02:56:13;;;;;;;5.80;2.27;;;;;;;-6.10;90.62;98859.20;1690395;84;20971;-75
2021/12/21 02:58:42;;;;;;;5.87;1.92;;;;;;;-6.13;91.63;98855.13;1673597;83;20942;-75
2021/12/21 03:01:15;;;;;;;3.65;1.50;;;;;;;-6.09;91.69;98858.98;1666888;85;21651;-75
2021/12/21 03:03:47;;;;;;;2.25;1.15;;;;;;;-6.05;91.73;98863.35;1672960;85;21101;-82
2021/12/21 03:06:51;;;;;;;3.95;1.70;;;;;;;-6.03;91.43;98866.62;1670659;85;21022;-76
2021/12/21 03:08:56;;;;;;;2.40;1.00;;;;;;;-6.05;91.08;98862.83;1669507;85;21733;-76
2021/12/21 03:11:48;;;;;;;4.97;1.42;;;;;;;-6.07;90.34;98871.59;1648742;85;22145;-76
2021/12/21 03:14:05;;;;;;;3.08;1.35;;;;;;;-6.09;90.23;98875.53;1673986;83;21038;-76
2021/12/21 03:16:40;;;;;;;6.10;1.90;;;;;;;-6.09;90.64;98884.88;1683925;84;20968;-77
2021/12/21 03:19:13;;;;;;;8.48;2.00;;;;;;;-6.10;90.33;98887.26;1671977;84;20943;-76
2021/12/21 03:21:44;;;;;;;5.58;1.60;;;;;;;-6.14;90.51;98884.73;1685561;84;21149;-76
2021/12/21 03:24:14;;;;;;;19.07;3.17;;;;;;;-6.12;90.67;98885.33;1658164;84;20994;-76
2021/12/21 03:26:50;;;;;;;10.95;3.22;;;;;;;-6.09;90.91;98887.55;1655242;84;20938;-76
2021/12/21 03:29:21;;;;;;;35.68;6.90;;;;;;;-6.10;90.48;98890.75;1652979;86;21596;-75
2021/12/21 03:31:49;;;;;;;28.98;5.80;;;;;;;-6.12;90.07;98890.67;1650509;86;21129;-78
2021/12/21 03:34:19;;;;;;;28.92;5.22;;;;;;;-6.15;90.29;98893.27;1657694;86;21459;-79
2021/12/21 03:36:58;;;;;;;23.07;4.60;;;;;;;-6.15;90.17;98885.77;1659527;86;20870;-76
2021/12/21 03:39:29;;;;;;;18.23;4.33;;;;;;;-6.15;90.21;98890.59;1658666;84;21023;-76
2021/12/21 03:42:00;;;;;;;16.35;4.53;;;;;;;-6.12;90.46;98888.00;1699367;82;20980;-74
2021/12/21 03:44:34;;;;;;;14.45;3.30;;;;;;;-6.10;91.04;98889.41;1697700;83;21690;-76
2021/12/21 03:47:15;;;;;;;15.18;3.95;;;;;;;-6.08;90.50;98884.66;1640368;84;21114;-76
2021/12/21 03:52:21;;;;;;;26.68;6.15;;;;;;;-6.09;90.06;98893.71;1710884;83;21065;-79
2021/12/21 03:54:56;;;;;;;23.60;4.58;;;;;;;-6.09;90.66;98885.70;1627788;87;20865;-78
2021/12/21 03:57:26;;;;;;;11.70;3.17;;;;;;;-6.07;90.76;98884.14;1676836;84;21580;-75
2021/12/21 03:59:58;;;;;;;6.33;2.25;;;;;;;-6.08;90.06;98886.52;1678363;84;21022;-75
2021/12/21 04:02:29;;;;;;;;;;;;;;;-6.12;90.75;98888.81;1672387;84;20946;-75
2021/12/21 04:05:03;;;;;;;11.78;3.33;;;;;;;-6.13;90.26;98892.53;1692933;84;20470;-77
2021/12/21 04:07:38;;;;;;;13.43;3.95;;;;;;;-6.16;90.54;98900.98;1672205;84;21656;-77
2021/12/21 04:10:09;;;;;;;11.35;3.27;;;;;;;-6.14;90.63;98901.58;1684200;84;20960;-78
2021/12/21 04:12:42;;;;;;;17.15;4.72;;;;;;;-6.15;91.64;98895.94;1684844;83;20968;-79
2021/12/21 04:15:17;;;;;;;20.52;4.85;;;;;;;-6.17;91.65;98901.21;1635702;86;21543;-78
2021/12/21 04:17:43;;;;;;;7.22;2.70;;;;;;;-6.21;91.75;98906.19;1673517;85;21605;-78
2021/12/21 04:20:13;;;;;;;6.45;2.33;;;;;;;-6.23;92.23;98904.77;1685239;85;21128;-78
2021/12/21 04:22:44;;;;;;;4.85;2.10;;;;;;;-6.22;92.88;98907.23;1674235;84;21573;-79
2021/12/21 04:25:14;;;;;;;4.03;2.02;;;;;;;-6.23;92.86;98908.27;1684886;85;20906;-79
2021/12/21 04:27:48;;;;;;;5.03;2.40;;;;;;;-6.22;93.28;98923.77;1678274;84;21167;-76
2021/12/21 04:30:19;;;;;;;4.97;2.17;;;;;;;-6.20;94.42;98924.37;1687698;85;20928;-74
2021/12/21 04:32:51;;;;;;;4.50;1.60;;;;;;;-6.20;94.15;98911.01;1676752;85;20905;-74
2021/12/21 04:35:31;;;;;;;3.50;1.90;;;;;;;-6.22;93.83;98929.12;1689331;85;21157;-74
2021/12/21 04:38:01;;;;;;;5.78;2.05;;;;;;;-6.32;93.32;98934.97;1672021;85;21015;-74
2021/12/21 04:40:44;;;;;;;3.67;1.32;;;;;;;-6.38;92.35;98932.70;1663595;85;20880;-74
2021/12/21 04:43:13;;;;;;;9.35;3.17;;;;;;;-6.42;91.95;98940.03;1669176;85;20908;-75
2021/12/21 04:45:44;;;;;;;14.10;3.33;;;;;;;-6.48;89.70;98937.73;1680899;85;21573;-74
2021/12/21 04:48:14;;;;;;;8.50;2.70;;;;;;;-6.50;90.38;98941.66;1677949;84;21008;-75
2021/12/21 04:50:44;;;;;;;3.03;1.27;;;;;;;-6.54;88.13;98943.13;1662233;84;21513;-75
2021/12/21 04:53:14;;;;;;;3.72;1.57;;;;;;;-6.61;86.15;98937.85;1696811;83;20895;-78
2021/12/21 04:55:47;;;;;;;4.20;1.70;;;;;;;-6.63;87.00;98957.28;1717534;83;21025;-77
2021/12/21 04:58:17;;;;;;;7.00;2.08;;;;;;;-6.62;87.43;98964.77;1703715;83;21066;-78
2021/12/21 05:00:58;;;;;;;8.08;2.72;;;;;;;-6.63;86.43;98962.62;1668540;84;21580;-77
2021/12/21 05:03:24;;;;;;;16.62;4.00;;;;;;;-6.70;86.17;98966.67;1668503;85;20890;-76
2021/12/21 05:05:54;;;;;;;7.00;1.90;;;;;;;-6.73;87.32;98966.30;1641156;86;21185;-76
2021/12/21 05:08:29;;;;;;;3.60;1.40;;;;;;;-6.77;86.79;98973.92;1606697;85;21071;-75
2021/12/21 05:11:04;;;;;;;5.37;2.08;;;;;;;-6.83;85.95;98982.80;1614177;86;20932;-73
2021/12/21 05:13:41;;;;;;;6.97;2.22;;;;;;;-6.89;85.70;98976.99;1637200;85;21598;-74
2021/12/21 05:16:11;;;;;;;7.17;2.70;;;;;;;-6.92;86.98;98988.09;1642609;85;21539;-75
2021/12/21 05:18:51;;;;;;;15.30;3.77;;;;;;;-6.93;85.67;98993.14;1670561;85;21116;-74
2021/12/21 05:21:20;;;;;;;18.55;3.85;;;;;;;-6.96;84.51;98989.59;1612339;86;21063;-76
2021/12/21 05:23:52;;;;;;;6.50;2.33;;;;;;;-6.96;85.42;98992.27;1660938;85;20971;-75
2021/12/21 05:26:24;;;;;;;11.45;1.75;;;;;;;-6.98;83.34;98994.33;1619273;86;26705;-75
2021/12/21 05:28:51;;;;;;;10.00;2.00;;;;;;;-7.01;81.49;98993.43;1660210;86;20948;-76
2021/12/21 05:31:23;;;;;;;7.45;1.90;;;;;;;-7.04;81.37;98993.34;1674876;84;21178;-75
2021/12/21 05:33:52;;;;;;;3.80;1.50;;;;;;;-7.06;82.05;98991.41;1700687;83;21018;-74
2021/12/21 05:36:20;;;;;;;3.72;1.80;;;;;;;-7.08;81.67;98987.31;1695809;83;20961;-75
2021/12/21 05:38:59;;;;;;;10.25;3.52;;;;;;;-7.12;81.15;98998.12;1673337;84;20954;-73
2021/12/21 05:41:39;;;;;;;6.78;2.75;;;;;;;-7.14;82.13;99000.19;1702174;83;21016;-74
2021/12/21 05:44:01;;;;;;;4.05;1.65;;;;;;;-7.15;81.24;99006.03;1703624;83;21176;-79
2021/12/21 05:46:34;;;;;;;7.53;2.10;;;;;;;-7.17;80.71;99003.28;1668605;83;21028;-79
2021/12/21 05:49:06;;;;;;;9.75;2.00;;;;;;;-7.21;80.08;98999.41;1678837;83;21622;-79
2021/12/21 05:51:33;;;;;;;3.95;1.62;;;;;;;-7.23;80.30;98995.62;1703184;83;21586;-79
2021/12/21 05:54:03;;;;;;;3.60;1.20;;;;;;;-7.23;79.46;98999.62;1681297;83;20905;-79
2021/12/21 05:56:36;;;;;;;4.87;1.80;;;;;;;-7.22;78.61;99004.44;1701550;83;22129;-78
2021/12/21 05:59:06;;;;;;;6.20;2.70;;;;;;;-7.22;79.80;98998.59;1704486;83;21020;-81
2021/12/21 06:01:36;;;;;;;8.48;3.00;;;;;;;-7.22;78.30;99006.59;1702409;83;21064;-80
2021/12/21 06:04:09;;;;;;;11.12;4.08;;;;;;;-7.23;77.93;99008.14;1675987;83;21041;-80
2021/12/21 06:06:40;;;;;;;6.60;2.47;;;;;;;-7.27;77.88;99015.74;1670997;84;26355;-77
2021/12/21 06:09:12;;;;;;;9.10;3.30;;;;;;;-7.28;77.94;99015.95;1677132;83;21185;-78
2021/12/21 06:25:51;;;;;;;5.65;1.90;;;;;;;-7.26;75.02;99018.72;1601813;86;21124;-73
2021/12/21 06:28:11;;;;;;;5.67;2.47;;;;;;;-7.31;74.18;99025.20;1652859;85;21538;-73
2021/12/21 06:30:40;;;;;;;6.67;2.50;;;;;;;-7.40;73.21;99035.30;1656674;85;21028;-73
2021/12/21 06:33:15;;;;;;;2.50;1.55;;;;;;;-7.50;72.04;99042.93;1660920;84;20955;-73
2021/12/21 06:35:43;;;;;;;4.28;1.90;;;;;;;-7.60;71.84;99061.77;1666816;84;21155;-74
2021/12/21 06:38:13;;;;;;;5.42;2.52;;;;;;;-7.72;70.77;99066.41;1656384;85;21494;-75
2021/12/21 06:40:46;;;;;;;6.65;2.25;;;;;;;-7.78;70.88;99071.75;1660951;84;21529;-74
2021/12/21 06:43:17;;;;;;;6.72;1.70;;;;;;;-7.87;69.30;99076.48;1656849;85;21522;-75
2021/12/21 06:53:50;;;;;;;7.00;2.52;;;;;;;-7.43;66.36;99093.56;1619232;85;21522;-76
2021/12/21 06:56:19;;;;;;;6.00;2.35;;;;;;;-7.42;64.83;99089.86;1626088;86;20947;-75
2021/12/21 06:58:50;;;;;;;7.90;2.22;;;;;;;-7.41;65.49;99083.50;1670887;85;20963;-75
2021/12/21 07:01:26;;;;;;;5.15;2.00;;;;;;;-7.23;65.58;99083.64;1667620;85;21090;-75
2021/12/21 07:03:59;;;;;;;4.28;1.92;;;;;;;-6.92;64.52;99084.69;1670969;83;21104;-76
2021/12/21 07:06:27;;;;;;;4.53;2.12;;;;;;;-6.70;63.30;99092.66;1680951;85;20979;-79
2021/12/21 07:09:11;;;;;;;6.95;2.22;;;;;;;-6.52;63.26;99090.59;1680099;85;20976;-76
2021/12/21 07:19:44;;;;;;;7.97;3.20;;;;;;;-6.70;62.37;99104.67;1678205;85;21455;-72
2021/12/21 07:22:20;;;;;;;15.93;5.12;;;;;;;-6.80;62.82;99107.81;1678717;85;20916;-81
2021/12/21 07:24:40;;;;;;;24.02;7.03;;;;;;;-6.82;63.45;99101.87;1681165;84;21442;-78
2021/12/21 07:27:08;;;;;;;18.80;5.85;;;;;;;-6.69;63.90;99103.13;1680816;84;21543;-78
2021/12/21 07:29:39;;;;;;;16.45;5.87;;;;;;;-6.46;64.74;99111.09;1680630;85;21537;-76
2021/12/21 07:32:10;;;;;;;9.48;3.60;;;;;;;-6.09;64.84;99108.82;1678252;85;21538;-73
2021/12/21 07:34:42;;;;;;;8.80;3.77;;;;;;;-5.61;64.29;99109.96;1694389;83;20971;-81
2021/12/21 07:37:10;;;;;;;11.35;2.90;;;;;;;-5.22;64.38;99114.06;1680834;85;20992;-73
2021/12/21 07:39:39;;;;;;;9.78;3.60;;;;;;;-4.97;62.42;99119.29;1680751;85;21208;-74
2021/12/21 07:42:08;;;;;;;6.33;2.67;;;;;;;-4.90;61.67;99110.65;1676691;85;21051;-71
2021/12/21 07:44:43;;;;;;;15.28;3.42;;;;;;;-4.80;61.10;99122.98;1672338;83;21019;-70
2021/12/21 07:47:19;;;;;;;7.10;2.72;;;;;;;-4.69;61.52;99124.36;1660500;84;20956;-74
2021/12/21 07:49:52;;;;;;;7.90;2.50;;;;;;;-4.44;60.16;99118.02;1641265;85;21016;-81
2021/12/21 07:52:21;;;;;;;5.90;2.83;;;;;;;-4.37;60.15;99127.59;1689371;84;21540;-74
2021/12/21 07:54:51;;;;;;;10.13;3.65;;;;;;;-4.20;60.27;99136.31;1672575;83;20912;-76
2021/12/21 07:57:22;;;;;;;13.08;3.40;;;;;;;-4.02;60.84;99137.54;1649216;85;20961;-78
2021/12/21 07:59:52;;;;;;;5.85;2.90;;;;;;;-3.66;58.98;99137.34;1644337;86;21131;-73
2021/12/21 08:02:27;;;;;;;10.93;3.27;;;;;;;-3.51;57.48;99142.77;1677995;84;20987;-77
2021/12/21 08:04:56;;;;;;;6.90;2.85;;;;;;;-3.52;58.96;99137.10;1693529;83;20907;-79
2021/12/21 08:07:30;;;;;;;6.60;2.10;;;;;;;-3.61;58.48;99139.32;1695442;83;20989;-75
2021/12/21 08:10:06;;;;;;;4.08;1.87;;;;;;;-4.07;56.73;99135.58;1688861;84;21054;-72
2021/12/21 08:12:37;;;;;;;3.62;2.10;;;;;;;-4.75;58.17;99142.68;1685377;84;20947;-74
2021/12/21 08:15:10;;;;;;;5.85;2.30;;;;;;;-5.21;60.85;99161.19;1632813;85;20991;-73
2021/12/21 08:17:47;;;;;;;4.05;1.62;;;;;;;-5.40;61.49;99159.84;1651207;85;21004;-73
2021/12/21 08:20:20;;;;;;;9.73;2.87;;;;;;;-5.56;61.52;99164.42;1652911;86;21459;-76
2021/12/21 08:22:49;;;;;;;5.75;2.50;;;;;;;-5.80;64.56;99167.45;1651536;86;21138;-80
2021/12/21 08:25:24;;;;;;;8.53;3.15;;;;;;;-6.03;63.93;99163.25;1651679;86;21046;-71
2021/12/21 08:27:51;;;;;;;11.53;4.62;;;;;;;-6.22;64.71;99177.05;1658607;84;20980;-80
2021/12/21 08:30:18;;;;;;;5.00;2.50;;;;;;;-6.24;66.00;99176.97;1662717;84;21514;-83
2021/12/21 08:32:52;;;;;;;6.80;2.98;;;;;;;-6.26;65.52;99174.52;1658559;84;20967;-83
2021/12/21 08:35:23;;;;;;;6.90;3.77;;;;;;;-6.48;65.38;99177.25;1656161;83;21065;-76
2021/12/21 08:38:02;;;;;;;12.93;5.33;;;;;;;-6.80;66.83;99185.73;1656849;85;21047;-76
2021/12/21 08:40:23;;;;;;;11.50;4.70;;;;;;;-6.88;68.60;99179.30;1656261;85;20971;-76
2021/12/21 08:42:52;;;;;;;7.87;4.08;;;;;;;-6.98;67.62;99173.62;1662449;84;21273;-74
2021/12/21 08:45:23;;;;;;;13.43;5.03;;;;;;;-7.11;69.14;99181.98;1635642;86;21087;-73
2021/12/21 08:47:59;;;;;;;21.48;7.28;;;;;;;-7.07;71.40;99177.05;1675175;84;21030;-74
2021/12/21 08:50:32;;;;;;;16.00;5.17;;;;;;;-6.99;71.07;99188.81;1631678;86;21039;-70
2021/12/21 08:53:03;;;;;;;10.23;3.55;;;;;;;-7.06;70.68;99190.69;1667565;84;21061;-69
2021/12/21 08:55:39;;;;;;;13.58;4.83;;;;;;;-7.15;70.91;99183.95;1634072;85;21031;-70
2021/12/21 08:58:13;;;;;;;10.30;3.50;;;;;;;-7.29;72.48;99189.01;1634982;86;21031;-80
2021/12/21 09:00:44;;;;;;;9.10;3.80;;;;;;;-7.39;72.43;99189.44;1635940;86;20982;-79
2021/12/21 09:03:18;;;;;;;3.67;1.98;;;;;;;-7.39;72.76;99194.77;1676878;84;21468;-79
2021/12/21 09:05:54;;;;;;;10.78;3.20;;;;;;;-7.38;73.25;99195.08;1646911;85;21031;-82
2021/12/21 09:08:26;;;;;;;6.20;2.92;;;;;;;-7.32;74.01;99196.91;1606618;86;21431;-80
2021/12/21 09:11:04;;;;;;;6.97;3.15;;;;;;;-7.24;74.12;99205.20;1610268;87;21027;-78
2021/12/21 09:13:36;;;;;;;3.25;1.77;;;;;;;-7.31;74.52;99203.89;1616183;86;21075;-79
2021/12/21 09:16:07;;;;;;;6.37;2.20;;;;;;;-7.43;77.08;99214.38;1582563;89;20993;-80
2021/12/21 09:18:35;;;;;;;3.30;1.40;;;;;;;-7.61;78.73;99216.06;1634102;85;21022;-72
2021/12/21 09:21:05;;;;;;;6.00;2.15;;;;;;;-7.82;79.57;99216.58;1627561;85;21161;-74
2021/12/21 09:23:34;;;;;;;6.15;2.17;;;;;;;-8.00;80.22;99212.38;1650457;85;21159;-74
2021/12/21 09:26:08;;;;;;;6.85;2.35;;;;;;;-8.12;80.93;99217.52;1663762;84;21624;-84
2021/12/21 09:28:38;;;;;;;6.33;1.80;;;;;;;-8.24;81.08;99221.80;1672548;84;21031;-75
2021/12/21 09:31:11;;;;;;;4.80;2.00;;;;;;;-8.23;80.86;99214.63;1670184;85;20947;-78
2021/12/21 09:33:49;;;;;;;3.72;1.47;;;;;;;-8.20;80.64;99216.89;1618641;86;21010;-78
2021/12/21 09:36:19;;;;;;;5.00;2.17;;;;;;;-8.22;80.01;99215.76;1655554;86;21010;-79
2021/12/21 09:39:05;;;;;;;6.60;2.02;;;;;;;-8.20;79.60;99221.70;1651831;85;21070;-74
2021/12/21 09:41:20;;;;;;;5.87;1.67;;;;;;;-8.17;79.09;99225.30;1626995;86;21027;-75
2021/12/21 09:43:47;;;;;;;4.20;1.90;;;;;;;-8.14;79.16;99219.56;1628371;86;21086;-74
2021/12/21 09:46:23;;;;;;;4.15;1.75;;;;;;;-8.12;78.68;99226.84;1627514;87;21115;-72
2021/12/21 09:48:51;;;;;;;7.62;2.55;;;;;;;-8.13;78.86;99231.86;1629291;87;21039;-76
2021/12/21 09:51:21;;;;;;;5.78;2.30;;;;;;;-8.07;79.52;99227.53;1609504;87;21015;-75
2021/12/21 09:53:51;;;;;;;5.70;2.17;;;;;;;-8.05;79.20;99232.14;1627418;87;21600;-74
2021/12/21 09:56:24;;;;;;;7.55;2.65;;;;;;;-8.07;78.75;99232.34;1607124;89;21090;-85
2021/12/21 09:58:57;;;;;;;2.67;1.70;;;;;;;-8.20;77.69;99238.20;1619536;88;21156;-77
2021/12/21 10:01:27;;;;;;;4.97;2.10;;;;;;;-8.40;78.02;99228.86;1657982;86;21131;-73
2021/12/21 10:04:00;;;;;;;12.93;3.40;;;;;;;-8.56;77.12;99243.86;1635076;87;20979;-74
2021/12/21 10:06:29;;;;;;;9.53;2.15;;;;;;;-8.71;75.61;99242.72;1632358;87;21027;-73
2021/12/21 10:09:09;;;;;;;4.62;1.70;;;;;;;-8.74;75.18;99243.94;1615665;87;21102;-74
2021/12/21 10:11:47;;;;;;;2.75;1.40;;;;;;;-8.51;75.26;99252.07;1639647;87;21136;-79
2021/12/21 10:14:16;;;;;;;3.02;0.95;;;;;;;-8.09;72.72;99240.27;1664208;84;21016;-76
2021/12/21 10:17:05;;;;;;;3.50;1.50;;;;;;;-7.79;68.75;99245.48;1693316;84;21025;-76
2021/12/21 10:19:33;;;;;;;4.20;1.60;;;;;;;-7.66;67.82;99246.00;1698850;83;21117;-75
2021/12/21 10:22:16;;;;;;;3.17;1.20;;;;;;;-7.42;66.44;99245.34;1647265;85;21040;-78
2021/12/21 10:24:50;;;;;;;1.40;1.00;;;;;;;-7.14;66.26;99261.10;1636168;86;21851;-76
2021/12/21 10:27:22;;;;;;;2.33;1.00;;;;;;;-6.95;65.83;99266.60;1649175;86;21086;-83
2021/12/21 10:29:56;;;;;;;3.20;1.50;;;;;;;-6.95;65.42;99262.09;1631062;86;21528;-83
2021/12/21 10:32:29;;;;;;;3.47;1.52;;;;;;;-7.07;65.43;99266.42;1702638;84;21106;-75
2021/12/21 10:35:06;;;;;;;7.25;2.52;;;;;;;-7.25;65.72;99268.91;1696434;84;21062;-79
2021/12/21 10:37:40;;;;;;;4.47;2.12;;;;;;;-7.42;65.88;99274.67;1697389;84;21141;-76
2021/12/21 10:40:27;;;;;;;3.85;1.85;;;;;;;-7.57;67.37;99279.94;1699808;82;21086;-75
2021/12/21 10:43:03;;;;;;;2.85;1.50;;;;;;;-7.66;67.80;99283.32;1665107;84;21081;-77
2021/12/21 10:45:47;;;;;;;3.87;1.70;;;;;;;-7.71;69.00;99275.12;1679294;84;20959;-75
2021/12/21 10:48:19;;;;;;;4.12;2.05;;;;;;;-7.78;68.93;99283.11;1701432;84;21597;-75
2021/12/21 10:51:00;;;;;;;6.80;1.57;;;;;;;-7.73;69.24;99285.16;1681987;83;21145;-73
2021/12/21 10:53:31;;;;;;;8.70;1.70;;;;;;;-7.58;68.70;99277.78;1613674;87;21017;-72
2021/12/21 10:56:08;;;;;;;2.67;0.93;;;;;;;-7.55;67.52;99286.70;1638166;86;20958;-72
2021/12/21 10:58:44;;;;;;;4.17;1.67;;;;;;;-7.69;66.86;99284.55;1609334;87;21017;-73
2021/12/21 11:01:25;;;;;;;7.62;2.80;;;;;;;-7.80;67.95;99285.67;1655947;86;20961;-73
2021/12/21 11:03:55;;;;;;;7.15;2.40;;;;;;;-7.73;69.03;99293.16;1683281;84;21148;-73
2021/12/21 11:06:34;;;;;;;4.90;2.10;;;;;;;-7.72;68.42;99296.95;1662721;83;21038;-73
2021/12/21 11:09:09;;;;;;;5.70;2.12;;;;;;;-7.79;68.14;99289.46;1599385;87;20992;-73
2021/12/21 11:11:47;;;;;;;5.53;2.17;;;;;;;-7.86;69.13;99286.48;1624448;86;21511;-71
2021/12/21 11:14:18;;;;;;;2.95;1.45;;;;;;;-7.87;73.89;99295.50;1692596;82;20935;-70
2021/12/21 11:16:51;;;;;;;5.75;2.02;;;;;;;-7.66;71.56;99300.64;1680206;84;21755;-72
2021/12/21 11:19:23;;;;;;;5.05;2.00;;;;;;;-7.60;70.21;99299.01;1674170;84;21033;-70
2021/12/21 11:21:52;;;;;;;6.37;2.40;;;;;;;-7.53;68.12;99313.98;1668983;85;20946;-70
2021/12/21 11:24:23;;;;;;;5.55;2.27;;;;;;;-7.53;67.28;99309.16;1662788;84;21058;-70
2021/12/21 11:26:53;;;;;;;7.80;2.58;;;;;;;-7.59;67.93;99302.80;1645462;84;20911;-70
2021/12/21 11:29:23;;;;;;;9.13;2.65;;;;;;;-7.60;67.36;99311.83;1638677;86;21812;-71
2021/12/21 11:31:55;;;;;;;5.55;2.40;;;;;;;-7.65;67.56;99311.62;1624850;87;21489;-69
2021/12/21 11:34:25;;;;;;;5.47;2.35;;;;;;;-7.77;69.38;99314.58;1624464;87;20999;-70
2021/12/21 11:39:47;;;;;;;5.30;2.05;;;;;;;-7.87;68.61;99322.14;1627354;87;21022;-69
2021/12/21 11:42:36;;;;;;;7.03;2.77;;;;;;;-7.88;70.05;99316.50;1607801;87;21080;-70
2021/12/21 11:45:13;;;;;;;4.80;2.35;;;;;;;-7.90;70.62;99325.20;1621834;86;21005;-69
2021/12/21 11:48:13;;;;;;;5.45;2.22;;;;;;;-7.99;70.35;99323.24;1661982;85;20983;-70
2021/12/21 11:50:46;;;;;;;8.18;2.92;;;;;;;-7.89;70.57;99331.67;1636686;85;21572;-71
2021/12/21 11:53:22;;;;;;;9.33;3.35;;;;;;;-7.79;71.96;99329.44;1636791;86;21514;-70
2021/12/21 11:55:52;;;;;;;6.95;2.75;;;;;;;-7.61;71.25;99332.84;1628183;86;22027;-70
2021/12/21 11:58:41;;;;;;;9.05;2.50;;;;;;;-7.24;70.04;99337.23;1634349;85;21071;-70
2021/12/21 12:01:23;;;;;;;13.13;4.58;;;;;;;-6.76;69.19;99333.77;1637018;86;21527;-71
2021/12/21 12:04:06;;;;;;;9.13;3.17;;;;;;;-6.08;64.43;99340.28;1651176;86;21097;-71
2021/12/21 12:06:51;;;;;;;6.40;2.40;;;;;;;-5.52;63.17;99344.02;1659098;86;21063;-70
2021/12/21 12:09:33;;;;;;;9.95;2.83;;;;;;;-4.86;60.36;99342.92;1650868;86;21956;-70
2021/12/21 12:12:14;;;;;;;6.70;2.95;;;;;;;-4.38;56.61;99345.69;1623606;86;20974;-71
2021/12/21 12:14:52;;;;;;;6.12;2.70;;;;;;;-4.12;53.76;99349.10;1683127;83;21044;-71
2021/12/21 12:17:23;;;;;;;6.90;2.40;;;;;;;-4.00;53.63;99354.80;1675807;84;21082;-71
2021/12/21 12:20:04;;;;;;;;;;;;;;;-3.75;54.91;99357.88;1646817;86;21000;-72
2021/12/21 12:22:40;;;;;;;5.80;2.52;;;;;;;-3.61;52.63;99357.17;1679850;83;21950;-72
2021/12/21 12:25:11;;;;;;;8.18;3.05;;;;;;;-3.43;51.98;99364.61;1677318;84;21045;-73
2021/12/21 12:27:48;;;;;;;4.67;2.27;;;;;;;-3.56;50.58;99351.94;1643399;86;21457;-71
2021/12/21 12:30:26;;;;;;;6.58;2.65;;;;;;;-4.17;51.31;99366.38;1640674;86;21186;-71
2021/12/21 12:33:00;;;;;;;4.20;2.37;;;;;;;-4.92;52.83;99380.47;1624491;86;21057;-71
2021/12/21 12:35:34;;;;;;;5.62;2.27;;;;;;;-5.79;55.21;99380.30;1675152;85;22102;-70
2021/12/21 12:38:15;;;;;;;3.47;2.02;;;;;;;-6.63;56.94;99383.64;1666241;85;21003;-71
2021/12/21 12:40:47;;;;;;;7.50;2.72;;;;;;;-7.23;58.21;99383.72;1663826;85;21071;-73
2021/12/21 12:43:25;;;;;;;6.17;2.47;;;;;;;-7.49;59.07;99388.51;1666380;84;21121;-73
2021/12/21 12:46:10;;;;;;;13.32;2.47;;;;;;;-7.53;58.91;99395.30;1685364;83;21016;-73
2021/12/21 12:48:51;;;;;;;6.42;2.22;;;;;;;-7.63;57.55;99395.38;1642006;83;21519;-73
2021/12/21 12:51:36;;;;;;;6.25;2.50;;;;;;;-7.94;57.53;99398.06;1683674;83;21018;-76
2021/12/21 12:54:19;;;;;;;5.15;2.17;;;;;;;-8.17;59.00;99413.06;1675822;83;23058;-72
2021/12/21 12:56:47;;;;;;;;;;;;;;;-8.42;58.53;99409.28;1665190;83;21039;-72
2021/12/21 12:59:14;;;;;;;7.42;1.87;;;;;;;-8.64;58.78;99418.36;1668770;83;20102;-80
2021/12/21 13:01:44;;;;;;;5.20;1.92;;;;;;;-8.79;59.72;99423.30;1643911;85;21125;-87
2021/12/21 13:04:14;;;;;;;4.87;1.77;;;;;;;-8.84;60.66;99418.25;1674688;84;21066;-76
2021/12/21 13:06:46;;;;;;;3.72;1.60;;;;;;;-8.90;59.75;99425.17;1644883;86;20948;-72
2021/12/21 13:09:18;;;;;;;5.85;2.30;;;;;;;-8.99;60.10;99432.97;1667956;85;21115;-72
2021/12/21 13:11:44;;;;;;;8.25;3.10;;;;;;;-9.03;61.12;99430.37;1653920;84;21041;-83